createdAt,value
2022-11-16T00:01:33.241Z,94634.38
2022-11-16T00:04:01.919Z,94640.31
2022-11-16T00:06:29.291Z,94651.81
2022-11-16T00:09:17.725Z,94625.84
2022-11-16T00:11:45.129Z,94602.47
2022-11-16T00:14:12.319Z,94684.47
2022-11-16T00:16:39.506Z,94625.81
2022-11-16T00:19:07.535Z,94615.41
2022-11-16T00:21:35.111Z,94597.25
2022-11-16T00:24:03.131Z,94594.28
2022-11-16T00:26:30.529Z,94632.13
2022-11-16T00:28:58.222Z,94602.44
2022-11-16T00:31:25.606Z,94632.09
2022-11-16T00:33:53.181Z,94618.38
2022-11-16T00:36:20.170Z,94584.22
2022-11-16T00:38:47.566Z,94567.88
2022-11-16T00:41:14.708Z,94587.94
2022-11-16T00:43:41.959Z,94591.25
2022-11-16T00:46:09.695Z,94586.44
2022-11-16T00:48:36.944Z,94577.19
2022-11-16T00:51:04.768Z,94577.53
2022-11-16T00:53:31.993Z,94583.09
2022-11-16T00:55:59.076Z,94566.75
2022-11-16T00:58:26.065Z,94568.97
2022-11-16T01:01:06.704Z,94567.53
2022-11-16T01:03:34.805Z,94570.84
2022-11-16T01:06:04.391Z,94602.38
2022-11-16T01:08:32.381Z,94621.69
2022-11-16T01:11:20.241Z,94634.31
2022-11-16T01:13:49.471Z,94664.38
2022-11-16T01:16:18.180Z,94662.50
2022-11-16T01:18:49.181Z,94671.06
2022-11-16T01:21:16.981Z,94642.84
2022-11-16T01:23:44.682Z,94631.31
2022-11-16T01:26:12.903Z,94622.09
2022-11-16T01:28:41.491Z,94625.38
2022-11-16T01:31:10.515Z,94591.25
2022-11-16T01:33:38.599Z,94587.91
2022-11-16T01:36:14.993Z,94576.81
2022-11-16T01:38:45.871Z,94582.00
2022-11-16T01:41:18.224Z,94600.53
2022-11-16T01:43:52.696Z,94675.88
2022-11-16T01:46:21.371Z,94688.88
2022-11-16T01:48:54.719Z,94688.50
2022-11-16T01:51:25.191Z,94659.19
2022-11-16T01:53:52.412Z,94636.56
2022-11-16T01:56:20.626Z,94641.75
2022-11-16T01:59:20.451Z,94617.25
2022-11-16T02:01:48.987Z,94617.63
2022-11-16T02:04:17.644Z,94617.63
2022-11-16T02:07:23.535Z,94629.50
2022-11-16T02:10:43.580Z,94600.91
2022-11-16T02:13:16.534Z,94622.81
2022-11-16T02:15:55.943Z,94637.69
2022-11-16T02:18:39.102Z,94619.84
2022-11-16T02:21:33.694Z,94608.34
2022-11-16T02:24:16.081Z,94590.16
2022-11-16T02:26:53.604Z,94583.88
2022-11-16T02:29:24.742Z,94596.09
2022-11-16T02:32:03.270Z,94661.78
2022-11-16T02:34:38.426Z,94674.78
2022-11-16T02:37:10.935Z,94674.03
2022-11-16T02:39:40.246Z,94700.03
2022-11-16T02:42:12.005Z,94719.69
2022-11-16T02:44:45.008Z,94715.22
2022-11-16T02:47:19.222Z,94695.19
2022-11-16T02:49:53.595Z,94677.75
2022-11-16T02:52:23.856Z,94647.28
2022-11-16T02:54:50.805Z,94607.59
2022-11-16T02:57:39.189Z,94593.81
2022-11-16T03:00:16.203Z,94594.19
2022-11-16T03:02:59.043Z,94585.66
2022-11-16T03:05:44.468Z,94637.63
2022-11-16T03:08:20.950Z,94612.75
2022-11-16T03:11:14.087Z,94610.16
2022-11-16T03:13:42.387Z,94624.66
2022-11-16T03:16:33.539Z,94592.69
2022-11-16T03:19:03.983Z,94583.84
2022-11-16T03:21:46.630Z,94605.38
2022-11-16T03:24:14.565Z,94584.94
2022-11-16T03:26:50.974Z,94578.63
2022-11-16T03:29:28.042Z,94576.41
2022-11-16T03:32:09.634Z,94571.56
2022-11-16T03:34:39.341Z,94576.03
2022-11-16T03:37:06.993Z,94580.88
2022-11-16T03:39:39.449Z,94564.91
2022-11-16T03:42:11.960Z,94542.63
2022-11-16T03:44:41.037Z,94509.22
2022-11-16T03:47:09.403Z,94492.19
2022-11-16T03:49:36.377Z,94469.16
2022-11-16T03:52:03.965Z,94458.44
2022-11-16T03:54:32.533Z,94457.31
2022-11-16T03:57:01.064Z,94487.34
2022-11-16T03:59:28.035Z,94534.16
2022-11-16T04:01:55.096Z,94538.97
2022-11-16T04:04:40.702Z,94521.16
2022-11-16T04:07:27.824Z,94481.09
2022-11-16T04:10:13.392Z,94478.13
2022-11-16T04:13:02.553Z,94454.75
2022-11-16T04:15:48.275Z,94461.78
2022-11-16T04:18:34.371Z,94468.44
2022-11-16T04:21:20.545Z,94476.22
2022-11-16T04:24:07.539Z,94505.16
2022-11-16T04:26:54.316Z,94487.41
2022-11-16T04:29:21.646Z,94448.44
2022-11-16T04:32:07.666Z,94422.81
2022-11-16T04:34:53.286Z,94427.66
2022-11-16T04:37:39.477Z,94402.06
2022-11-16T04:40:10.354Z,94392.03
2022-11-16T04:42:37.581Z,94404.63
2022-11-16T04:45:24.310Z,94404.63
2022-11-16T04:47:53.217Z,94391.25
2022-11-16T04:50:24.193Z,94439.50
2022-11-16T04:52:51.667Z,94439.47
2022-11-16T04:55:18.865Z,94408.31
2022-11-16T04:57:47.927Z,94403.88
2022-11-16T05:00:16.131Z,94420.56
2022-11-16T05:02:43.998Z,94445.06
2022-11-16T05:05:11.727Z,94360.06
2022-11-16T05:07:41.915Z,94337.09
2022-11-16T05:10:15.983Z,94356.75
2022-11-16T05:12:43.568Z,94368.66
2022-11-16T05:15:11.209Z,94355.66
2022-11-16T05:17:39.701Z,94350.84
2022-11-16T05:20:30.764Z,94366.81
2022-11-16T05:23:03.277Z,94405.75
2022-11-16T05:25:36.627Z,94330.81
2022-11-16T05:28:06.569Z,94348.59
2022-11-16T05:30:37.526Z,94366.44
2022-11-16T05:33:04.792Z,94348.59
2022-11-16T05:35:35.344Z,94410.94
2022-11-16T05:38:02.309Z,94380.53
2022-11-16T05:40:33.118Z,94388.72
2022-11-16T05:43:04.199Z,94372.75
2022-11-16T05:45:37.572Z,94384.25
2022-11-16T05:48:06.698Z,94361.63
2022-11-16T05:50:36.285Z,94360.53
2022-11-16T05:53:14.766Z,94379.06
2022-11-16T05:55:42.087Z,94380.91
2022-11-16T05:58:09.259Z,94379.84
2022-11-16T06:00:36.602Z,94378.34
2022-11-16T06:03:03.876Z,94385.75
2022-11-16T06:05:40.301Z,94434.38
2022-11-16T06:08:09.242Z,94388.06
2022-11-16T06:10:37.247Z,94382.88
2022-11-16T06:13:05.497Z,94379.56
2022-11-16T06:15:38.257Z,94398.50
2022-11-16T06:18:06.733Z,94428.56
2022-11-16T06:20:34.376Z,94412.63
2022-11-16T06:23:01.465Z,94402.66
2022-11-16T06:25:31.005Z,94393.00
2022-11-16T06:27:58.842Z,94396.34
2022-11-16T06:30:26.478Z,94394.88
2022-11-16T06:32:53.758Z,94411.22
2022-11-16T06:35:20.830Z,94414.56
2022-11-16T06:37:48.430Z,94419.00
2022-11-16T06:40:16.071Z,94422.72
2022-11-16T06:42:44.487Z,94427.91
2022-11-16T06:45:13.691Z,94433.84
2022-11-16T06:47:45.665Z,94444.59
2022-11-16T06:50:13.091Z,94466.09
2022-11-16T06:52:40.024Z,94472.41
2022-11-16T06:55:10.651Z,94483.16
2022-11-16T06:57:38.036Z,94484.25
2022-11-16T07:00:08.110Z,94497.97
2022-11-16T07:02:38.187Z,94513.50
2022-11-16T07:05:07.616Z,94534.63
2022-11-16T07:07:34.811Z,94540.91
2022-11-16T07:10:02.448Z,94576.09
2022-11-16T07:12:30.991Z,94644.72
2022-11-16T07:14:58.778Z,94632.16
2022-11-16T07:17:26.338Z,94589.00
2022-11-16T07:19:56.591Z,94632.13
2022-11-16T07:22:23.619Z,94655.44
2022-11-16T07:24:51.789Z,94724.53
2022-11-16T07:27:20.318Z,94732.22
2022-11-16T07:29:50.228Z,94758.81
2022-11-16T07:32:40.077Z,94858.13
2022-11-16T07:35:25.742Z,95130.38
2022-11-16T07:37:52.825Z,95331.69
2022-11-16T07:40:21.489Z,95302.91
2022-11-16T07:42:49.717Z,95270.69
2022-11-16T07:45:31.991Z,95226.50
2022-11-16T07:48:05.887Z,95182.66
2022-11-16T07:50:51.642Z,95135.50
2022-11-16T07:53:20.083Z,95095.91
2022-11-16T07:55:54.157Z,95047.69
2022-11-16T07:58:23.666Z,95018.69
2022-11-16T08:00:51.770Z,95059.16
2022-11-16T08:03:24.374Z,95049.00
2022-11-16T08:06:02.861Z,95003.44
2022-11-16T08:08:30.700Z,95029.09
2022-11-16T08:11:02.593Z,95022.78
2022-11-16T08:13:32.185Z,95027.56
2022-11-16T08:16:03.706Z,95013.13
2022-11-16T08:18:32.819Z,95036.16
2022-11-16T08:21:01.948Z,95063.28
2022-11-16T08:23:33.672Z,95048.66
2022-11-16T08:26:09.890Z,95028.66
2022-11-16T08:28:39.125Z,95016.69
2022-11-16T08:31:12.997Z,94998.53
2022-11-16T08:33:44.309Z,94991.50
2022-11-16T08:36:17.466Z,94992.16
2022-11-16T08:38:48.077Z,94978.38
2022-11-16T08:41:16.291Z,94974.25
2022-11-16T08:43:47.396Z,94966.50
2022-11-16T08:46:15.718Z,94963.16
2022-11-16T08:48:48.163Z,94984.31
2022-11-16T08:51:19.957Z,94990.22
2022-11-16T08:53:58.502Z,95009.22
2022-11-16T08:56:27.732Z,95015.06
2022-11-16T08:58:58.367Z,95012.03
2022-11-16T09:01:30.262Z,95020.66
2022-11-16T09:03:57.390Z,95041.03
2022-11-16T09:06:26.260Z,95047.75
2022-11-16T09:08:53.431Z,95043.25
2022-11-16T09:11:22.866Z,95047.00
2022-11-16T09:13:52.018Z,95047.38
2022-11-16T09:16:21.198Z,95040.28
2022-11-16T09:18:52.221Z,95051.88
2022-11-16T09:21:21.293Z,95026.78
2022-11-16T09:23:49.253Z,95050.13
2022-11-16T09:26:19.098Z,95089.91
2022-11-16T09:28:46.106Z,95130.16
2022-11-16T09:31:14.179Z,95157.97
2022-11-16T09:33:43.500Z,95180.81
2022-11-16T09:36:13.685Z,95262.13
2022-11-16T09:42:01.189Z,95280.91
2022-11-16T09:44:28.392Z,95236.34
2022-11-16T09:47:00.058Z,95244.50
2022-11-16T09:49:33.453Z,95208.94
2022-11-16T09:52:03.675Z,95212.19
2022-11-16T09:54:35.817Z,95214.69
2022-11-16T09:57:12.242Z,95219.34
2022-11-16T09:59:49.881Z,95206.13
2022-11-16T10:02:28.623Z,95243.75
2022-11-16T10:05:07.875Z,95244.97
2022-11-16T10:07:42.311Z,95305.63
2022-11-16T10:10:28.907Z,95287.31
2022-11-16T10:13:00.999Z,95337.59
2022-11-16T10:15:55.798Z,95325.66
2022-11-16T10:18:27.632Z,95330.81
2022-11-16T10:21:08.742Z,95310.81
2022-11-16T10:23:51.069Z,95316.25
2022-11-16T10:26:36.802Z,95351.50
2022-11-16T10:29:13.381Z,95287.47
2022-11-16T10:32:02.461Z,95273.97
2022-11-16T10:34:38.450Z,95291.13
2022-11-16T10:37:08.706Z,95286.44
2022-11-16T10:39:40.548Z,95255.78
2022-11-16T10:42:14.486Z,95307.25
2022-11-16T10:45:00.056Z,95306.69
2022-11-16T10:47:42.872Z,95306.41
2022-11-16T10:50:32.037Z,95336.16
2022-11-16T10:53:00.462Z,95341.75
2022-11-16T10:55:31.039Z,95332.44
2022-11-16T10:58:05.820Z,95310.88
2022-11-16T11:00:39.265Z,95312.63
2022-11-16T11:03:06.828Z,95293.66
2022-11-16T11:05:35.847Z,95304.53
2022-11-16T11:08:10.329Z,95269.91
2022-11-16T11:10:40.012Z,95319.75
2022-11-16T11:13:10.323Z,95294.41
2022-11-16T11:15:41.325Z,95291.09
2022-11-16T11:18:24.744Z,95277.72
2022-11-16T11:21:17.400Z,95309.78
2022-11-16T11:23:53.138Z,95322.84
2022-11-16T11:26:36.651Z,95368.63
2022-11-16T11:29:24.447Z,95380.53
2022-11-16T11:32:00.455Z,95361.94
2022-11-16T11:34:30.273Z,95410.75
2022-11-16T11:37:01.416Z,95323.19
2022-11-16T11:39:34.778Z,95437.97
2022-11-16T11:42:01.912Z,95357.38
2022-11-16T11:44:37.953Z,95476.78
2022-11-16T11:50:25.226Z,95424.91
2022-11-16T11:53:26.135Z,95443.97
2022-11-16T11:55:59.038Z,95458.75
2022-11-16T11:58:31.069Z,95417.88
2022-11-16T12:01:25.782Z,95516.28
2022-11-16T12:04:08.119Z,95523.44
2022-11-16T12:06:44.325Z,95524.50
2022-11-16T12:09:23.137Z,95561.84
2022-11-16T12:12:18.269Z,95529.00
2022-11-16T12:15:03.484Z,95484.97
2022-11-16T12:17:51.728Z,95519.25
2022-11-16T12:20:56.461Z,95452.16
2022-11-16T12:23:57.661Z,95516.31
2022-11-16T12:26:58.835Z,95489.78
2022-11-16T12:29:27.955Z,95493.84
2022-11-16T12:32:25.600Z,95470.03
2022-11-16T12:35:02.183Z,95459.97
2022-11-16T12:38:07.643Z,95487.59
2022-11-16T12:40:50.483Z,95509.59
2022-11-16T12:43:31.217Z,95462.59
2022-11-16T12:46:06.530Z,95386.91
2022-11-16T12:48:55.270Z,95417.50
2022-11-16T12:51:40.912Z,95417.50
2022-11-16T12:54:36.342Z,95421.22
2022-11-16T12:57:18.939Z,95364.88
2022-11-16T13:00:02.748Z,95526.75
2022-11-16T13:02:55.136Z,95466.97
2022-11-16T13:05:28.425Z,95440.13
2022-11-16T13:08:03.090Z,95510.50
2022-11-16T13:10:35.901Z,95453.94
2022-11-16T13:13:35.361Z,95353.38
2022-11-16T13:16:01.206Z,95304.56
2022-11-16T13:18:30.051Z,95338.06
2022-11-16T13:21:15.231Z,95239.00
2022-11-16T13:24:07.719Z,95269.16
2022-11-16T13:26:56.944Z,95316.09
2022-11-16T13:29:40.984Z,95319.47
2022-11-16T13:32:32.959Z,95350.78
2022-11-16T13:35:01.232Z,95343.31
2022-11-16T13:37:37.668Z,95361.50
2022-11-16T13:40:04.869Z,95364.06
2022-11-16T13:42:34.625Z,95378.22
2022-11-16T13:45:17.989Z,95396.41
2022-11-16T13:47:58.879Z,95396.78
2022-11-16T13:50:37.534Z,95352.88
2022-11-16T13:56:04.825Z,95369.22
2022-11-16T13:58:34.112Z,95358.78
2022-11-16T14:01:11.107Z,95381.16
2022-11-16T14:03:40.405Z,95360.75
2022-11-16T14:06:13.568Z,95371.53
2022-11-16T14:08:40.532Z,95280.69
2022-11-16T14:11:40.048Z,95323.91
2022-11-16T14:14:11.915Z,95377.19
2022-11-16T14:16:47.651Z,95303.78
2022-11-16T14:19:47.924Z,95260.94
2022-11-16T14:22:33.094Z,95310.06
2022-11-16T14:25:14.365Z,95305.94
2022-11-16T14:27:52.855Z,95292.59
2022-11-16T14:30:24.844Z,95290.31
2022-11-16T14:32:54.767Z,95238.94
2022-11-16T14:35:28.341Z,95212.16
2022-11-16T14:38:05.074Z,95170.13
2022-11-16T14:40:45.466Z,95166.00
2022-11-16T14:43:21.207Z,95131.75
2022-11-16T14:45:54.242Z,95123.53
2022-11-16T14:48:26.025Z,95135.06
2022-11-16T14:51:16.722Z,95123.91
2022-11-16T14:53:50.714Z,95122.06
2022-11-16T14:56:18.999Z,95151.06
2022-11-16T14:58:52.216Z,95130.22
2022-11-16T15:01:21.052Z,95133.56
2022-11-16T15:03:55.916Z,95174.44
2022-11-16T15:06:25.035Z,95121.28
2022-11-16T15:08:57.663Z,95132.81
2022-11-16T15:11:50.070Z,95150.69
2022-11-16T15:14:24.741Z,95133.91
2022-11-16T15:16:54.414Z,95134.69
2022-11-16T15:19:22.501Z,95094.16
2022-11-16T15:21:55.226Z,95078.19
2022-11-16T15:24:31.295Z,95102.34
2022-11-16T15:27:09.156Z,95096.00
2022-11-16T15:29:36.539Z,95088.94
2022-11-16T15:32:04.847Z,95083.69
2022-11-16T15:34:32.522Z,95059.16
2022-11-16T15:36:59.751Z,95085.16
2022-11-16T15:39:30.631Z,95063.25
2022-11-16T15:42:03.447Z,95090.00
2022-11-16T15:44:32.048Z,95055.38
2022-11-16T15:46:59.606Z,95040.13
2022-11-16T15:49:30.494Z,94996.66
2022-11-16T15:51:59.621Z,94996.66
2022-11-16T15:54:53.388Z,94978.47
2022-11-16T15:57:23.320Z,94954.31
2022-11-16T15:59:56.880Z,94939.84
2022-11-16T16:02:27.771Z,94951.72
2022-11-16T16:04:54.953Z,94926.81
2022-11-16T16:07:39.802Z,94915.69
2022-11-16T16:10:19.862Z,94902.69
2022-11-16T16:12:52.173Z,94902.31
2022-11-16T16:15:23.325Z,94872.97
2022-11-16T16:17:51.298Z,94866.66
2022-11-16T16:20:22.008Z,94872.25
2022-11-16T16:22:49.396Z,94878.16
2022-11-16T16:25:34.372Z,94860.72
2022-11-16T16:28:02.422Z,94852.53
2022-11-16T16:30:30.758Z,94852.84
2022-11-16T16:32:58.341Z,94842.06
2022-11-16T16:35:26.320Z,94830.56
2022-11-16T16:38:01.299Z,94813.84
2022-11-16T16:40:29.156Z,94818.28
2022-11-16T16:42:56.982Z,94810.09
2022-11-16T16:45:39.368Z,94793.00
2022-11-16T16:48:07.025Z,94784.47
2022-11-16T16:50:34.284Z,94783.38
2022-11-16T16:53:01.360Z,94774.03
2022-11-16T16:55:31.684Z,94762.47
2022-11-16T16:58:03.031Z,94759.16
2022-11-16T17:00:30.120Z,94747.59
2022-11-16T17:02:58.624Z,94733.88
2022-11-16T17:05:26.679Z,94719.38
2022-11-16T17:07:56.977Z,94704.94
2022-11-16T17:10:24.742Z,94695.22
2022-11-16T17:12:59.227Z,94681.63
2022-11-16T17:15:26.255Z,94671.19
2022-11-16T17:17:55.700Z,94661.53
2022-11-16T17:20:22.895Z,94657.41
2022-11-16T17:22:49.826Z,94643.69
2022-11-16T17:25:16.923Z,94644.72
2022-11-16T17:27:43.886Z,94645.44
2022-11-16T17:30:11.577Z,94637.19
2022-11-16T17:32:38.582Z,94615.75
2022-11-16T17:35:05.696Z,94591.00
2022-11-16T17:37:32.903Z,94584.25
2022-11-16T17:39:59.899Z,94576.47
2022-11-16T17:42:26.954Z,94568.03
2022-11-16T17:44:55.389Z,94568.06
2022-11-16T17:47:22.495Z,94550.31
2022-11-16T17:49:49.544Z,94546.94
2022-11-16T17:52:16.965Z,94540.63
2022-11-16T17:54:44.084Z,94538.03
2022-11-16T17:57:11.055Z,94526.94
2022-11-16T17:59:38.244Z,94526.56
2022-11-16T18:02:05.473Z,94522.44
2022-11-16T18:04:32.564Z,94513.47
2022-11-16T18:07:00.907Z,94504.97
2022-11-16T18:09:28.214Z,94513.88
2022-11-16T18:11:55.353Z,94504.25
2022-11-16T18:14:22.338Z,94509.03
2022-11-16T18:16:49.735Z,94507.06
2022-11-16T18:19:20.211Z,94504.47
2022-11-16T18:21:48.337Z,94484.16
2022-11-16T18:24:15.563Z,94462.03
2022-11-16T18:26:42.817Z,94464.94
2022-11-16T18:29:12.951Z,94448.34
2022-11-16T18:31:39.969Z,94433.50
2022-11-16T18:34:06.984Z,94439.34
2022-11-16T18:36:34.136Z,94402.91
2022-11-16T18:39:01.220Z,94395.91
2022-11-16T18:41:29.934Z,94384.88
2022-11-16T18:43:59.864Z,94377.81
2022-11-16T18:46:31.195Z,94356.03
2022-11-16T18:48:58.736Z,94334.97
2022-11-16T18:51:27.581Z,94321.66
2022-11-16T18:53:57.691Z,94340.13
2022-11-16T18:56:25.523Z,94332.75
2022-11-16T18:58:53.407Z,94327.94
2022-11-16T19:01:23.807Z,94331.69
2022-11-16T19:03:55.135Z,94327.59
2022-11-16T19:06:23.358Z,94334.63
2022-11-16T19:09:00.235Z,94305.81
2022-11-16T19:11:28.724Z,94296.53
2022-11-16T19:14:09.063Z,94306.56
2022-11-16T19:16:36.278Z,94299.50
2022-11-16T19:19:03.859Z,94313.94
2022-11-16T19:21:34.131Z,94301.34
2022-11-16T19:24:01.330Z,94292.09
2022-11-16T19:26:28.706Z,94299.88
2022-11-16T19:28:55.880Z,94296.91
2022-11-16T19:31:26.108Z,94303.22
2022-11-16T19:33:55.364Z,94293.22
2022-11-16T19:36:23.216Z,94289.88
2022-11-16T19:38:50.415Z,94293.22
2022-11-16T19:41:21.517Z,94302.47
2022-11-16T19:43:51.500Z,94297.28
2022-11-16T19:46:23.377Z,94297.63
2022-11-16T19:48:51.412Z,94310.22
2022-11-16T19:51:24.890Z,94313.91
2022-11-16T19:53:52.438Z,94309.13
2022-11-16T19:56:21.663Z,94302.84
2022-11-16T19:58:49.028Z,94327.97
2022-11-16T20:01:26.376Z,94308.03
2022-11-16T20:03:54.900Z,94288.06
2022-11-16T20:06:40.867Z,94280.28
2022-11-16T20:09:12.116Z,94273.25
2022-11-16T20:11:41.291Z,94265.47
2022-11-16T20:14:10.872Z,94263.63
2022-11-16T20:16:42.680Z,94258.06
2022-11-16T20:19:10.595Z,94247.34
2022-11-16T20:21:40.116Z,94251.78
2022-11-16T20:24:11.406Z,94228.09
2022-11-16T20:26:43.749Z,94226.25
2022-11-16T20:29:12.175Z,94229.94
2022-11-16T20:31:42.856Z,94224.78
2022-11-16T20:34:14.363Z,94222.53
2022-11-16T20:36:43.829Z,94213.69
2022-11-16T20:39:19.206Z,94209.97
2022-11-16T20:41:46.996Z,94224.03
2022-11-16T20:44:22.280Z,94222.56
2022-11-16T20:46:52.306Z,94224.06
2022-11-16T20:49:19.446Z,94204.81
2022-11-16T20:51:47.867Z,94194.44
2022-11-16T20:54:15.279Z,94214.78
2022-11-16T20:56:42.369Z,94211.81
2022-11-16T20:59:09.506Z,94243.28
2022-11-16T21:01:36.908Z,94249.94
2022-11-16T21:04:05.653Z,94240.28
2022-11-16T21:06:33.239Z,94225.53
2022-11-16T21:09:00.849Z,94210.72
2022-11-16T21:11:30.409Z,94224.06
2022-11-16T21:14:15.766Z,94191.50
2022-11-16T21:16:42.832Z,94201.84
2022-11-16T21:19:10.155Z,94201.47
2022-11-16T21:21:38.304Z,94210.72
2022-11-16T21:24:05.517Z,94211.47
2022-11-16T21:26:33.882Z,94190.03
2022-11-16T21:29:02.135Z,94170.38
2022-11-16T21:31:31.619Z,94211.09
2022-11-16T21:34:00.928Z,94199.25
2022-11-16T21:36:30.822Z,94183.72
2022-11-16T21:39:00.676Z,94180.75
2022-11-16T21:41:27.977Z,94181.13
2022-11-16T21:43:55.340Z,94166.31
2022-11-16T21:46:26.976Z,94156.69
2022-11-16T21:48:56.824Z,94168.16
2022-11-16T21:51:26.462Z,94155.56
2022-11-16T21:53:53.433Z,94159.28
2022-11-16T21:56:25.474Z,94158.53
2022-11-16T21:58:53.569Z,94142.56
2022-11-16T22:01:21.640Z,94153.69
2022-11-16T22:04:08.949Z,94165.16
2022-11-16T22:06:54.308Z,94159.56
2022-11-16T22:09:21.353Z,94176.63
2022-11-16T22:11:48.290Z,94189.59
2022-11-16T22:14:15.261Z,94162.53
2022-11-16T22:16:42.264Z,94168.47
2022-11-16T22:19:09.239Z,94175.50
2022-11-16T22:21:36.198Z,94163.66
2022-11-16T22:24:03.163Z,94132.19
2022-11-16T22:26:30.236Z,94150.34
2022-11-16T22:28:58.581Z,94140.75
2022-11-16T22:31:25.600Z,94144.47
2022-11-16T22:33:53.925Z,94145.91
2022-11-16T22:36:21.073Z,94136.31
2022-11-16T22:38:48.269Z,94139.28
2022-11-16T22:41:15.402Z,94126.31
2022-11-16T22:43:42.739Z,94123.69
2022-11-16T22:46:10.915Z,94113.69
2022-11-16T22:48:39.955Z,94116.25
2022-11-16T22:51:15.490Z,94125.13
2022-11-16T22:53:42.431Z,94158.47
2022-11-16T22:56:10.514Z,94114.34
2022-11-16T22:58:38.510Z,94096.59
2022-11-16T23:01:07.947Z,94092.16
2022-11-16T23:03:35.754Z,94074.28
2022-11-16T23:06:04.085Z,94081.72
2022-11-16T23:08:31.673Z,94079.13
2022-11-16T23:11:24.034Z,94076.88
2022-11-16T23:14:13.041Z,94069.75
2022-11-16T23:16:40.966Z,94080.91
2022-11-16T23:19:31.374Z,94086.84
2022-11-16T23:22:17.786Z,94078.00
2022-11-16T23:25:03.731Z,94081.31
2022-11-16T23:27:42.794Z,94069.50
2022-11-16T23:30:13.124Z,94073.94
2022-11-16T23:32:41.399Z,94074.69
2022-11-16T23:35:09.836Z,94060.97
2022-11-16T23:38:10.091Z,94059.47
2022-11-16T23:40:39.483Z,94053.25
2022-11-16T23:43:44.745Z,94041.78
2022-11-16T23:46:14.431Z,94038.44
2022-11-16T23:48:41.357Z,94041.78
2022-11-16T23:51:08.266Z,94026.25
2022-11-16T23:53:35.528Z,94031.09
2022-11-16T23:56:05.936Z,94021.06
2022-11-16T23:58:33.296Z,94032.16
